sensor_id;sensor_type;location;lat;lon;timestamp;P1;durP1;ratioP1;P2;durP2;ratioP2
78004;SDS011;67209;51.698;-0.292;2023-07-31T00:01:57;9.43;;;3.45;;
78004;SDS011;67209;51.698;-0.292;2023-07-31T00:04:23;7.35;;;3.28;;
78004;SDS011;67209;51.698;-0.292;2023-07-31T00:06:49;9.32;;;3.25;;
78004;SDS011;67209;51.698;-0.292;2023-07-31T00:09:15;12.52;;;4.43;;
78004;SDS011;67209;51.698;-0.292;2023-07-31T00:11:41;13.25;;;3.50;;
78004;SDS011;67209;51.698;-0.292;2023-07-31T00:14:07;8.43;;;3.20;;
78004;SDS011;67209;51.698;-0.292;2023-07-31T00:16:33;9.40;;;3.22;;
78004;SDS011;67209;51.698;-0.292;2023-07-31T00:18:59;10.63;;;3.45;;
78004;SDS011;67209;51.698;-0.292;2023-07-31T00:21:25;10.35;;;3.72;;
78004;SDS011;67209;51.698;-0.292;2023-07-31T00:23:51;9.15;;;2.75;;
78004;SDS011;67209;51.698;-0.292;2023-07-31T00:26:17;7.25;;;2.38;;
78004;SDS011;67209;51.698;-0.292;2023-07-31T00:28:43;7.38;;;2.40;;
78004;SDS011;67209;51.698;-0.292;2023-07-31T00:31:09;8.77;;;2.80;;
78004;SDS011;67209;51.698;-0.292;2023-07-31T00:33:35;7.50;;;2.55;;
78004;SDS011;67209;51.698;-0.292;2023-07-31T00:36:01;8.75;;;2.40;;
78004;SDS011;67209;51.698;-0.292;2023-07-31T00:38:27;7.13;;;2.33;;
78004;SDS011;67209;51.698;-0.292;2023-07-31T00:40:53;6.25;;;1.77;;
78004;SDS011;67209;51.698;-0.292;2023-07-31T00:43:19;8.73;;;1.98;;
78004;SDS011;67209;51.698;-0.292;2023-07-31T00:45:45;6.38;;;2.40;;
78004;SDS011;67209;51.698;-0.292;2023-07-31T00:48:11;4.47;;;1.60;;
78004;SDS011;67209;51.698;-0.292;2023-07-31T00:50:37;4.43;;;1.80;;
78004;SDS011;67209;51.698;-0.292;2023-07-31T00:53:03;4.63;;;1.60;;
78004;SDS011;67209;51.698;-0.292;2023-07-31T00:55:29;3.92;;;1.67;;
78004;SDS011;67209;51.698;-0.292;2023-07-31T00:57:56;3.85;;;1.23;;
78004;SDS011;67209;51.698;-0.292;2023-07-31T01:00:22;5.50;;;1.02;;
78004;SDS011;67209;51.698;-0.292;2023-07-31T01:02:48;2.90;;;1.20;;
78004;SDS011;67209;51.698;-0.292;2023-07-31T01:05:15;3.88;;;1.20;;
78004;SDS011;67209;51.698;-0.292;2023-07-31T01:08:05;3.20;;;1.13;;
78004;SDS011;67209;51.698;-0.292;2023-07-31T01:10:43;4.88;;;1.38;;
78004;SDS011;67209;51.698;-0.292;2023-07-31T01:13:09;3.30;;;1.00;;
78004;SDS011;67209;51.698;-0.292;2023-07-31T01:15:36;2.08;;;1.00;;
78004;SDS011;67209;51.698;-0.292;2023-07-31T01:18:02;3.17;;;0.90;;
78004;SDS011;67209;51.698;-0.292;2023-07-31T01:20:31;2.00;;;0.93;;
78004;SDS011;67209;51.698;-0.292;2023-07-31T01:28:13;1.73;;;0.70;;
78004;SDS011;67209;51.698;-0.292;2023-07-31T01:30:41;3.15;;;1.05;;
78004;SDS011;67209;51.698;-0.292;2023-07-31T01:33:09;1.48;;;0.70;;
78004;SDS011;67209;51.698;-0.292;2023-07-31T01:35:35;1.38;;;0.60;;
78004;SDS011;67209;51.698;-0.292;2023-07-31T01:38:01;2.40;;;0.50;;
78004;SDS011;67209;51.698;-0.292;2023-07-31T01:40:28;2.45;;;0.70;;
78004;SDS011;67209;51.698;-0.292;2023-07-31T01:42:54;1.42;;;0.60;;
78004;SDS011;67209;51.698;-0.292;2023-07-31T01:45:20;2.67;;;0.60;;
78004;SDS011;67209;51.698;-0.292;2023-07-31T01:47:46;2.97;;;0.70;;
78004;SDS011;67209;51.698;-0.292;2023-07-31T01:50:12;2.63;;;0.80;;
78004;SDS011;67209;51.698;-0.292;2023-07-31T01:52:37;2.00;;;0.80;;
78004;SDS011;67209;51.698;-0.292;2023-07-31T01:55:04;1.17;;;0.77;;
78004;SDS011;67209;51.698;-0.292;2023-07-31T01:57:30;2.33;;;0.70;;
78004;SDS011;67209;51.698;-0.292;2023-07-31T01:59:56;3.38;;;0.70;;
78004;SDS011;67209;51.698;-0.292;2023-07-31T02:02:22;1.73;;;0.70;;
78004;SDS011;67209;51.698;-0.292;2023-07-31T02:04:48;2.05;;;0.80;;
78004;SDS011;67209;51.698;-0.292;2023-07-31T02:07:14;2.50;;;1.00;;
78004;SDS011;67209;51.698;-0.292;2023-07-31T02:09:40;1.17;;;0.80;;
78004;SDS011;67209;51.698;-0.292;2023-07-31T02:12:06;1.90;;;0.70;;
78004;SDS011;67209;51.698;-0.292;2023-07-31T02:14:33;1.70;;;0.80;;
78004;SDS011;67209;51.698;-0.292;2023-07-31T02:16:59;3.22;;;1.15;;
78004;SDS011;67209;51.698;-0.292;2023-07-31T02:19:25;1.88;;;1.20;;
78004;SDS011;67209;51.698;-0.292;2023-07-31T02:21:51;2.25;;;0.68;;
78004;SDS011;67209;51.698;-0.292;2023-07-31T02:24:17;1.85;;;1.00;;
78004;SDS011;67209;51.698;-0.292;2023-07-31T02:26:43;1.63;;;0.93;;
78004;SDS011;67209;51.698;-0.292;2023-07-31T02:29:09;4.00;;;0.90;;
78004;SDS011;67209;51.698;-0.292;2023-07-31T02:31:35;3.15;;;0.77;;
78004;SDS011;67209;51.698;-0.292;2023-07-31T02:34:01;3.50;;;1.00;;
78004;SDS011;67209;51.698;-0.292;2023-07-31T02:36:27;2.38;;;0.98;;
78004;SDS011;67209;51.698;-0.292;2023-07-31T02:38:53;3.35;;;1.50;;
78004;SDS011;67209;51.698;-0.292;2023-07-31T02:41:20;1.98;;;1.00;;
78004;SDS011;67209;51.698;-0.292;2023-07-31T02:43:46;2.75;;;1.00;;
78004;SDS011;67209;51.698;-0.292;2023-07-31T02:46:12;8.05;;;1.13;;
78004;SDS011;67209;51.698;-0.292;2023-07-31T02:48:38;4.95;;;0.93;;
78004;SDS011;67209;51.698;-0.292;2023-07-31T02:51:04;5.38;;;1.25;;
78004;SDS011;67209;51.698;-0.292;2023-07-31T02:53:30;7.25;;;1.30;;
78004;SDS011;67209;51.698;-0.292;2023-07-31T02:55:56;2.45;;;1.00;;
78004;SDS011;67209;51.698;-0.292;2023-07-31T02:58:22;5.55;;;1.15;;
78004;SDS011;67209;51.698;-0.292;2023-07-31T03:00:48;1.25;;;0.80;;
78004;SDS011;67209;51.698;-0.292;2023-07-31T03:03:14;4.03;;;1.33;;
78004;SDS011;67209;51.698;-0.292;2023-07-31T03:05:40;4.35;;;1.15;;
78004;SDS011;67209;51.698;-0.292;2023-07-31T03:08:06;1.48;;;0.88;;
78004;SDS011;67209;51.698;-0.292;2023-07-31T03:10:32;3.88;;;0.93;;
78004;SDS011;67209;51.698;-0.292;2023-07-31T03:12:58;6.80;;;1.10;;
78004;SDS011;67209;51.698;-0.292;2023-07-31T03:15:24;3.40;;;1.05;;
78004;SDS011;67209;51.698;-0.292;2023-07-31T03:17:50;2.28;;;1.30;;
78004;SDS011;67209;51.698;-0.292;2023-07-31T03:20:16;3.92;;;0.98;;
78004;SDS011;67209;51.698;-0.292;2023-07-31T03:22:42;1.50;;;0.90;;
78004;SDS011;67209;51.698;-0.292;2023-07-31T03:25:08;3.65;;;1.00;;
78004;SDS011;67209;51.698;-0.292;2023-07-31T03:27:35;3.88;;;1.30;;
78004;SDS011;67209;51.698;-0.292;2023-07-31T03:30:02;2.70;;;0.90;;
78004;SDS011;67209;51.698;-0.292;2023-07-31T03:32:28;3.28;;;0.90;;
78004;SDS011;67209;51.698;-0.292;2023-07-31T03:34:54;1.65;;;0.80;;
78004;SDS011;67209;51.698;-0.292;2023-07-31T03:37:20;3.92;;;1.08;;
78004;SDS011;67209;51.698;-0.292;2023-07-31T03:39:46;1.10;;;0.80;;
78004;SDS011;67209;51.698;-0.292;2023-07-31T03:42:12;3.22;;;1.10;;
78004;SDS011;67209;51.698;-0.292;2023-07-31T03:44:38;3.78;;;0.95;;
78004;SDS011;67209;51.698;-0.292;2023-07-31T03:47:04;2.92;;;1.10;;
78004;SDS011;67209;51.698;-0.292;2023-07-31T03:49:30;3.30;;;1.25;;
78004;SDS011;67209;51.698;-0.292;2023-07-31T03:51:56;2.33;;;1.23;;
78004;SDS011;67209;51.698;-0.292;2023-07-31T03:54:22;2.67;;;1.23;;
78004;SDS011;67209;51.698;-0.292;2023-07-31T03:56:49;4.15;;;1.27;;
78004;SDS011;67209;51.698;-0.292;2023-07-31T03:59:15;1.73;;;0.95;;
78004;SDS011;67209;51.698;-0.292;2023-07-31T04:01:40;2.15;;;1.10;;
78004;SDS011;67209;51.698;-0.292;2023-07-31T04:04:06;5.95;;;1.20;;
78004;SDS011;67209;51.698;-0.292;2023-07-31T04:06:32;6.47;;;1.50;;
78004;SDS011;67209;51.698;-0.292;2023-07-31T04:08:58;4.15;;;1.30;;
78004;SDS011;67209;51.698;-0.292;2023-07-31T04:11:24;3.45;;;1.27;;
78004;SDS011;67209;51.698;-0.292;2023-07-31T04:13:50;4.88;;;1.48;;
78004;SDS011;67209;51.698;-0.292;2023-07-31T04:16:16;3.92;;;1.23;;
78004;SDS011;67209;51.698;-0.292;2023-07-31T04:18:42;4.43;;;1.15;;
78004;SDS011;67209;51.698;-0.292;2023-07-31T04:21:08;3.03;;;1.17;;
78004;SDS011;67209;51.698;-0.292;2023-07-31T04:23:35;4.35;;;1.65;;
78004;SDS011;67209;51.698;-0.292;2023-07-31T04:26:01;2.13;;;1.33;;
78004;SDS011;67209;51.698;-0.292;2023-07-31T04:28:27;5.15;;;1.63;;
78004;SDS011;67209;51.698;-0.292;2023-07-31T04:30:53;6.18;;;1.75;;
78004;SDS011;67209;51.698;-0.292;2023-07-31T04:33:19;4.50;;;1.17;;
78004;SDS011;67209;51.698;-0.292;2023-07-31T04:35:48;2.50;;;1.27;;
78004;SDS011;67209;51.698;-0.292;2023-07-31T04:38:17;2.05;;;1.50;;
78004;SDS011;67209;51.698;-0.292;2023-07-31T04:40:43;7.38;;;1.92;;
78004;SDS011;67209;51.698;-0.292;2023-07-31T04:43:09;3.88;;;1.58;;
78004;SDS011;67209;51.698;-0.292;2023-07-31T04:45:35;4.53;;;1.90;;
78004;SDS011;67209;51.698;-0.292;2023-07-31T04:48:01;2.42;;;1.10;;
78004;SDS011;67209;51.698;-0.292;2023-07-31T04:50:27;3.50;;;1.00;;
78004;SDS011;67209;51.698;-0.292;2023-07-31T04:52:55;4.30;;;1.55;;
78004;SDS011;67209;51.698;-0.292;2023-07-31T04:55:21;4.82;;;1.90;;
78004;SDS011;67209;51.698;-0.292;2023-07-31T04:57:47;3.00;;;1.50;;
78004;SDS011;67209;51.698;-0.292;2023-07-31T05:00:13;5.63;;;1.55;;
78004;SDS011;67209;51.698;-0.292;2023-07-31T05:02:39;4.15;;;1.60;;
78004;SDS011;67209;51.698;-0.292;2023-07-31T05:05:05;3.30;;;1.35;;
78004;SDS011;67209;51.698;-0.292;2023-07-31T05:07:31;5.07;;;1.85;;
78004;SDS011;67209;51.698;-0.292;2023-07-31T05:09:57;4.53;;;1.60;;
78004;SDS011;67209;51.698;-0.292;2023-07-31T05:12:23;3.03;;;1.35;;
78004;SDS011;67209;51.698;-0.292;2023-07-31T05:14:49;5.53;;;1.80;;
78004;SDS011;67209;51.698;-0.292;2023-07-31T05:17:15;4.10;;;1.50;;
78004;SDS011;67209;51.698;-0.292;2023-07-31T05:19:41;3.00;;;1.27;;
78004;SDS011;67209;51.698;-0.292;2023-07-31T05:22:07;3.45;;;1.45;;
78004;SDS011;67209;51.698;-0.292;2023-07-31T05:24:33;2.78;;;1.10;;
78004;SDS011;67209;51.698;-0.292;2023-07-31T05:26:59;4.55;;;1.20;;
78004;SDS011;67209;51.698;-0.292;2023-07-31T05:29:25;5.03;;;1.83;;
78004;SDS011;67209;51.698;-0.292;2023-07-31T05:31:51;3.85;;;1.20;;
78004;SDS011;67209;51.698;-0.292;2023-07-31T05:34:19;5.60;;;1.38;;
78004;SDS011;67209;51.698;-0.292;2023-07-31T05:36:45;13.27;;;1.80;;
78004;SDS011;67209;51.698;-0.292;2023-07-31T05:39:11;4.38;;;1.27;;
78004;SDS011;67209;51.698;-0.292;2023-07-31T05:41:37;3.58;;;1.48;;
78004;SDS011;67209;51.698;-0.292;2023-07-31T05:44:03;4.63;;;1.38;;
78004;SDS011;67209;51.698;-0.292;2023-07-31T05:46:29;3.97;;;1.30;;
78004;SDS011;67209;51.698;-0.292;2023-07-31T05:48:56;71.22;;;6.57;;
78004;SDS011;67209;51.698;-0.292;2023-07-31T05:51:22;3.55;;;1.33;;
78004;SDS011;67209;51.698;-0.292;2023-07-31T05:53:48;3.55;;;1.00;;
78004;SDS011;67209;51.698;-0.292;2023-07-31T05:56:14;3.13;;;1.20;;
78004;SDS011;67209;51.698;-0.292;2023-07-31T05:58:40;3.35;;;1.20;;
78004;SDS011;67209;51.698;-0.292;2023-07-31T06:01:06;5.57;;;1.27;;
78004;SDS011;67209;51.698;-0.292;2023-07-31T06:03:32;4.68;;;1.13;;
78004;SDS011;67209;51.698;-0.292;2023-07-31T06:05:58;7.03;;;1.45;;
78004;SDS011;67209;51.698;-0.292;2023-07-31T06:08:24;5.07;;;0.80;;
78004;SDS011;67209;51.698;-0.292;2023-07-31T06:10:50;2.47;;;1.45;;
78004;SDS011;67209;51.698;-0.292;2023-07-31T06:13:16;3.85;;;1.30;;
78004;SDS011;67209;51.698;-0.292;2023-07-31T06:15:42;3.38;;;1.20;;
78004;SDS011;67209;51.698;-0.292;2023-07-31T06:18:08;4.38;;;1.20;;
78004;SDS011;67209;51.698;-0.292;2023-07-31T06:20:34;2.78;;;0.98;;
78004;SDS011;67209;51.698;-0.292;2023-07-31T06:23:00;3.72;;;1.23;;
78004;SDS011;67209;51.698;-0.292;2023-07-31T06:25:26;4.40;;;1.25;;
78004;SDS011;67209;51.698;-0.292;2023-07-31T06:27:55;3.40;;;1.17;;
78004;SDS011;67209;51.698;-0.292;2023-07-31T06:30:21;1.92;;;0.90;;
78004;SDS011;67209;51.698;-0.292;2023-07-31T06:32:47;3.05;;;0.90;;
78004;SDS011;67209;51.698;-0.292;2023-07-31T06:35:13;2.17;;;0.70;;
78004;SDS011;67209;51.698;-0.292;2023-07-31T06:37:39;2.88;;;0.90;;
78004;SDS011;67209;51.698;-0.292;2023-07-31T06:40:08;1.95;;;0.70;;
78004;SDS011;67209;51.698;-0.292;2023-07-31T06:42:34;2.38;;;0.77;;
78004;SDS011;67209;51.698;-0.292;2023-07-31T06:45:01;3.00;;;0.95;;
78004;SDS011;67209;51.698;-0.292;2023-07-31T06:47:27;2.50;;;0.68;;
78004;SDS011;67209;51.698;-0.292;2023-07-31T06:49:53;1.63;;;0.70;;
78004;SDS011;67209;51.698;-0.292;2023-07-31T06:52:19;3.38;;;0.80;;
78004;SDS011;67209;51.698;-0.292;2023-07-31T06:54:57;2.30;;;0.80;;
78004;SDS011;67209;51.698;-0.292;2023-07-31T06:57:25;1.48;;;0.80;;
78004;SDS011;67209;51.698;-0.292;2023-07-31T06:59:51;3.42;;;0.73;;
78004;SDS011;67209;51.698;-0.292;2023-07-31T07:02:17;3.45;;;0.73;;
78004;SDS011;67209;51.698;-0.292;2023-07-31T07:04:43;1.83;;;0.70;;
78004;SDS011;67209;51.698;-0.292;2023-07-31T07:07:09;1.85;;;0.80;;
78004;SDS011;67209;51.698;-0.292;2023-07-31T07:09:35;26.35;;;2.95;;
78004;SDS011;67209;51.698;-0.292;2023-07-31T07:12:04;3.55;;;0.90;;
78004;SDS011;67209;51.698;-0.292;2023-07-31T07:14:30;2.42;;;0.70;;
78004;SDS011;67209;51.698;-0.292;2023-07-31T07:16:56;2.78;;;0.65;;
78004;SDS011;67209;51.698;-0.292;2023-07-31T07:19:22;3.85;;;0.63;;
78004;SDS011;67209;51.698;-0.292;2023-07-31T07:21:48;4.07;;;1.23;;
78004;SDS011;67209;51.698;-0.292;2023-07-31T07:24:14;2.50;;;0.93;;
78004;SDS011;67209;51.698;-0.292;2023-07-31T07:26:40;2.97;;;1.00;;
78004;SDS011;67209;51.698;-0.292;2023-07-31T07:29:06;0.93;;;0.60;;
78004;SDS011;67209;51.698;-0.292;2023-07-31T07:31:32;3.42;;;0.90;;
78004;SDS011;67209;51.698;-0.292;2023-07-31T07:33:59;1.20;;;0.80;;
78004;SDS011;67209;51.698;-0.292;2023-07-31T07:36:27;2.95;;;1.15;;
78004;SDS011;67209;51.698;-0.292;2023-07-31T07:38:53;1.13;;;0.80;;
78004;SDS011;67209;51.698;-0.292;2023-07-31T07:41:19;0.77;;;0.57;;
78004;SDS011;67209;51.698;-0.292;2023-07-31T07:43:45;4.55;;;1.15;;
78004;SDS011;67209;51.698;-0.292;2023-07-31T07:46:11;1.30;;;0.80;;
78004;SDS011;67209;51.698;-0.292;2023-07-31T07:48:37;2.50;;;0.82;;
78004;SDS011;67209;51.698;-0.292;2023-07-31T07:51:03;1.30;;;0.98;;
78004;SDS011;67209;51.698;-0.292;2023-07-31T07:53:29;1.80;;;1.00;;
78004;SDS011;67209;51.698;-0.292;2023-07-31T07:55:55;2.17;;;1.20;;
78004;SDS011;67209;51.698;-0.292;2023-07-31T07:58:21;2.42;;;1.10;;
78004;SDS011;67209;51.698;-0.292;2023-07-31T08:00:48;2.95;;;1.05;;
78004;SDS011;67209;51.698;-0.292;2023-07-31T08:03:14;2.88;;;1.17;;
78004;SDS011;67209;51.698;-0.292;2023-07-31T08:05:41;3.20;;;1.17;;
78004;SDS011;67209;51.698;-0.292;2023-07-31T08:08:07;4.20;;;1.58;;
78004;SDS011;67209;51.698;-0.292;2023-07-31T08:10:33;2.22;;;1.33;;
78004;SDS011;67209;51.698;-0.292;2023-07-31T08:12:59;2.90;;;1.25;;
78004;SDS011;67209;51.698;-0.292;2023-07-31T08:15:25;4.65;;;1.58;;
78004;SDS011;67209;51.698;-0.292;2023-07-31T08:17:51;2.47;;;1.27;;
78004;SDS011;67209;51.698;-0.292;2023-07-31T08:20:17;3.88;;;2.00;;
78004;SDS011;67209;51.698;-0.292;2023-07-31T08:22:43;2.97;;;1.25;;
78004;SDS011;67209;51.698;-0.292;2023-07-31T08:25:09;3.15;;;1.35;;
78004;SDS011;67209;51.698;-0.292;2023-07-31T08:27:35;2.50;;;1.30;;
78004;SDS011;67209;51.698;-0.292;2023-07-31T08:30:01;2.85;;;1.00;;
78004;SDS011;67209;51.698;-0.292;2023-07-31T08:32:27;2.95;;;1.13;;
78004;SDS011;67209;51.698;-0.292;2023-07-31T08:34:53;5.70;;;1.55;;
78004;SDS011;67209;51.698;-0.292;2023-07-31T08:37:19;3.45;;;1.63;;
78004;SDS011;67209;51.698;-0.292;2023-07-31T08:39:45;4.47;;;2.40;;
78004;SDS011;67209;51.698;-0.292;2023-07-31T08:42:11;5.07;;;2.58;;
78004;SDS011;67209;51.698;-0.292;2023-07-31T08:44:37;6.45;;;2.95;;
78004;SDS011;67209;51.698;-0.292;2023-07-31T08:47:04;5.95;;;3.08;;
78004;SDS011;67209;51.698;-0.292;2023-07-31T08:49:30;5.60;;;2.05;;
78004;SDS011;67209;51.698;-0.292;2023-07-31T08:51:56;3.47;;;2.40;;
78004;SDS011;67209;51.698;-0.292;2023-07-31T08:54:23;4.38;;;2.25;;
78004;SDS011;67209;51.698;-0.292;2023-07-31T08:56:49;6.85;;;2.67;;
78004;SDS011;67209;51.698;-0.292;2023-07-31T08:59:15;4.55;;;1.98;;
78004;SDS011;67209;51.698;-0.292;2023-07-31T09:01:43;6.72;;;2.42;;
78004;SDS011;67209;51.698;-0.292;2023-07-31T09:04:11;4.28;;;1.58;;
78004;SDS011;67209;51.698;-0.292;2023-07-31T09:06:38;3.80;;;2.25;;
78004;SDS011;67209;51.698;-0.292;2023-07-31T09:09:05;4.07;;;2.10;;
78004;SDS011;67209;51.698;-0.292;2023-07-31T09:11:31;3.65;;;2.03;;
78004;SDS011;67209;51.698;-0.292;2023-07-31T09:13:57;2.65;;;1.27;;
78004;SDS011;67209;51.698;-0.292;2023-07-31T09:16:29;4.88;;;1.95;;
78004;SDS011;67209;51.698;-0.292;2023-07-31T09:18:57;2.55;;;1.30;;
78004;SDS011;67209;51.698;-0.292;2023-07-31T09:21:23;3.13;;;1.20;;
78004;SDS011;67209;51.698;-0.292;2023-07-31T09:23:51;2.55;;;1.35;;
78004;SDS011;67209;51.698;-0.292;2023-07-31T09:26:32;5.85;;;1.50;;
78004;SDS011;67209;51.698;-0.292;2023-07-31T09:28:58;2.63;;;1.30;;
78004;SDS011;67209;51.698;-0.292;2023-07-31T09:34:09;3.00;;;1.42;;
78004;SDS011;67209;51.698;-0.292;2023-07-31T09:36:48;2.30;;;1.27;;
78004;SDS011;67209;51.698;-0.292;2023-07-31T09:39:14;3.97;;;1.35;;
78004;SDS011;67209;51.698;-0.292;2023-07-31T09:41:45;2.63;;;1.20;;
78004;SDS011;67209;51.698;-0.292;2023-07-31T09:44:11;5.20;;;1.63;;
78004;SDS011;67209;51.698;-0.292;2023-07-31T09:46:38;3.85;;;1.42;;
78004;SDS011;67209;51.698;-0.292;2023-07-31T09:49:05;3.60;;;1.60;;
78004;SDS011;67209;51.698;-0.292;2023-07-31T09:51:31;4.70;;;1.25;;
78004;SDS011;67209;51.698;-0.292;2023-07-31T09:54:03;2.75;;;1.02;;
78004;SDS011;67209;51.698;-0.292;2023-07-31T09:56:29;2.40;;;1.13;;
78004;SDS011;67209;51.698;-0.292;2023-07-31T09:58:55;3.45;;;1.55;;
78004;SDS011;67209;51.698;-0.292;2023-07-31T10:01:22;2.20;;;1.02;;
78004;SDS011;67209;51.698;-0.292;2023-07-31T10:03:48;1.15;;;1.05;;
78004;SDS011;67209;51.698;-0.292;2023-07-31T10:06:14;2.33;;;1.20;;
78004;SDS011;67209;51.698;-0.292;2023-07-31T10:08:43;3.22;;;1.42;;
78004;SDS011;67209;51.698;-0.292;2023-07-31T10:11:11;2.30;;;1.17;;
78004;SDS011;67209;51.698;-0.292;2023-07-31T10:13:39;2.85;;;1.45;;
78004;SDS011;67209;51.698;-0.292;2023-07-31T10:16:06;2.47;;;1.50;;
78004;SDS011;67209;51.698;-0.292;2023-07-31T10:18:33;4.75;;;1.40;;
78004;SDS011;67209;51.698;-0.292;2023-07-31T10:21:00;3.58;;;1.17;;
78004;SDS011;67209;51.698;-0.292;2023-07-31T10:23:27;2.95;;;1.27;;
78004;SDS011;67209;51.698;-0.292;2023-07-31T10:25:53;3.50;;;1.00;;
78004;SDS011;67209;51.698;-0.292;2023-07-31T10:28:20;3.60;;;1.10;;
78004;SDS011;67209;51.698;-0.292;2023-07-31T10:30:46;3.72;;;1.42;;
78004;SDS011;67209;51.698;-0.292;2023-07-31T10:33:13;2.10;;;1.10;;
78004;SDS011;67209;51.698;-0.292;2023-07-31T10:35:39;2.70;;;1.20;;
78004;SDS011;67209;51.698;-0.292;2023-07-31T10:38:09;2.53;;;1.25;;
78004;SDS011;67209;51.698;-0.292;2023-07-31T10:40:36;2.72;;;1.40;;
78004;SDS011;67209;51.698;-0.292;2023-07-31T10:43:02;2.83;;;1.25;;
78004;SDS011;67209;51.698;-0.292;2023-07-31T10:45:35;2.55;;;1.20;;
78004;SDS011;67209;51.698;-0.292;2023-07-31T10:48:05;1.85;;;1.30;;
78004;SDS011;67209;51.698;-0.292;2023-07-31T10:50:47;1.92;;;1.27;;
78004;SDS011;67209;51.698;-0.292;2023-07-31T10:53:30;1.83;;;1.10;;
78004;SDS011;67209;51.698;-0.292;2023-07-31T10:55:59;3.17;;;1.35;;
78004;SDS011;67209;51.698;-0.292;2023-07-31T10:58:25;2.65;;;1.05;;
78004;SDS011;67209;51.698;-0.292;2023-07-31T11:00:55;2.72;;;1.13;;
78004;SDS011;67209;51.698;-0.292;2023-07-31T11:03:24;3.35;;;1.20;;
78004;SDS011;67209;51.698;-0.292;2023-07-31T11:06:03;2.35;;;1.30;;
78004;SDS011;67209;51.698;-0.292;2023-07-31T11:08:30;2.40;;;0.82;;
78004;SDS011;67209;51.698;-0.292;2023-07-31T11:13:41;2.50;;;1.33;;
78004;SDS011;67209;51.698;-0.292;2023-07-31T11:16:08;2.13;;;1.02;;
78004;SDS011;67209;51.698;-0.292;2023-07-31T11:18:35;2.10;;;1.45;;
78004;SDS011;67209;51.698;-0.292;2023-07-31T11:21:01;2.38;;;1.23;;
78004;SDS011;67209;51.698;-0.292;2023-07-31T11:23:27;2.13;;;1.33;;
78004;SDS011;67209;51.698;-0.292;2023-07-31T11:25:53;3.50;;;1.40;;
78004;SDS011;67209;51.698;-0.292;2023-07-31T11:28:24;3.42;;;1.40;;
78004;SDS011;67209;51.698;-0.292;2023-07-31T11:30:50;4.10;;;1.50;;
78004;SDS011;67209;51.698;-0.292;2023-07-31T11:33:16;6.13;;;1.80;;
78004;SDS011;67209;51.698;-0.292;2023-07-31T11:38:09;5.90;;;1.75;;
78004;SDS011;67209;51.698;-0.292;2023-07-31T11:40:42;5.32;;;1.60;;
78004;SDS011;67209;51.698;-0.292;2023-07-31T11:43:09;4.20;;;1.30;;
78004;SDS011;67209;51.698;-0.292;2023-07-31T11:45:36;3.88;;;1.80;;
78004;SDS011;67209;51.698;-0.292;2023-07-31T11:48:02;4.45;;;1.83;;
78004;SDS011;67209;51.698;-0.292;2023-07-31T11:50:28;4.03;;;1.55;;
78004;SDS011;67209;51.698;-0.292;2023-07-31T11:52:59;4.45;;;1.98;;
78004;SDS011;67209;51.698;-0.292;2023-07-31T11:55:26;3.83;;;1.50;;
78004;SDS011;67209;51.698;-0.292;2023-07-31T11:57:52;4.03;;;1.98;;
78004;SDS011;67209;51.698;-0.292;2023-07-31T12:00:19;5.00;;;2.03;;
78004;SDS011;67209;51.698;-0.292;2023-07-31T12:02:46;4.18;;;1.65;;
78004;SDS011;67209;51.698;-0.292;2023-07-31T12:05:12;4.82;;;1.75;;
78004;SDS011;67209;51.698;-0.292;2023-07-31T12:07:49;5.10;;;1.80;;
78004;SDS011;67209;51.698;-0.292;2023-07-31T12:12:58;4.95;;;2.10;;
78004;SDS011;67209;51.698;-0.292;2023-07-31T12:15:34;4.22;;;1.67;;
78004;SDS011;67209;51.698;-0.292;2023-07-31T12:18:03;6.40;;;2.15;;
78004;SDS011;67209;51.698;-0.292;2023-07-31T12:20:30;5.57;;;1.60;;
78004;SDS011;67209;51.698;-0.292;2023-07-31T12:22:56;7.43;;;2.10;;
78004;SDS011;67209;51.698;-0.292;2023-07-31T12:25:23;5.13;;;1.80;;
78004;SDS011;67209;51.698;-0.292;2023-07-31T12:27:54;5.65;;;1.70;;
78004;SDS011;67209;51.698;-0.292;2023-07-31T12:30:33;4.78;;;1.60;;
78004;SDS011;67209;51.698;-0.292;2023-07-31T12:33:05;6.32;;;2.13;;
78004;SDS011;67209;51.698;-0.292;2023-07-31T12:35:34;4.28;;;1.92;;
78004;SDS011;67209;51.698;-0.292;2023-07-31T12:38:01;4.85;;;2.17;;
78004;SDS011;67209;51.698;-0.292;2023-07-31T12:40:27;3.28;;;1.73;;
78004;SDS011;67209;51.698;-0.292;2023-07-31T12:42:53;5.28;;;2.10;;
78004;SDS011;67209;51.698;-0.292;2023-07-31T12:45:19;4.70;;;2.08;;
78004;SDS011;67209;51.698;-0.292;2023-07-31T12:47:46;11.25;;;2.70;;
78004;SDS011;67209;51.698;-0.292;2023-07-31T12:50:12;6.70;;;2.17;;
78004;SDS011;67209;51.698;-0.292;2023-07-31T12:52:38;5.13;;;2.08;;
78004;SDS011;67209;51.698;-0.292;2023-07-31T12:55:04;6.25;;;2.63;;
78004;SDS011;67209;51.698;-0.292;2023-07-31T12:57:30;6.35;;;2.50;;
78004;SDS011;67209;51.698;-0.292;2023-07-31T12:59:56;6.47;;;2.45;;
78004;SDS011;67209;51.698;-0.292;2023-07-31T13:02:22;8.73;;;2.72;;
78004;SDS011;67209;51.698;-0.292;2023-07-31T13:04:49;5.28;;;2.28;;
78004;SDS011;67209;51.698;-0.292;2023-07-31T13:07:15;8.25;;;3.00;;
78004;SDS011;67209;51.698;-0.292;2023-07-31T13:09:41;7.55;;;2.60;;
78004;SDS011;67209;51.698;-0.292;2023-07-31T13:12:08;5.82;;;2.88;;
78004;SDS011;67209;51.698;-0.292;2023-07-31T13:14:34;9.85;;;2.97;;
78004;SDS011;67209;51.698;-0.292;2023-07-31T13:17:00;4.78;;;2.70;;
78004;SDS011;67209;51.698;-0.292;2023-07-31T13:19:26;9.68;;;2.78;;
78004;SDS011;67209;51.698;-0.292;2023-07-31T13:21:52;6.18;;;2.40;;
78004;SDS011;67209;51.698;-0.292;2023-07-31T13:24:18;6.15;;;2.83;;
78004;SDS011;67209;51.698;-0.292;2023-07-31T13:26:44;8.07;;;2.65;;
78004;SDS011;67209;51.698;-0.292;2023-07-31T13:29:10;10.38;;;3.70;;
78004;SDS011;67209;51.698;-0.292;2023-07-31T13:31:36;7.50;;;2.88;;
78004;SDS011;67209;51.698;-0.292;2023-07-31T13:34:02;13.55;;;3.10;;
78004;SDS011;67209;51.698;-0.292;2023-07-31T13:36:28;6.97;;;3.22;;
78004;SDS011;67209;51.698;-0.292;2023-07-31T13:38:54;9.10;;;2.78;;
78004;SDS011;67209;51.698;-0.292;2023-07-31T13:41:20;8.30;;;3.00;;
78004;SDS011;67209;51.698;-0.292;2023-07-31T13:43:49;10.40;;;3.33;;
78004;SDS011;67209;51.698;-0.292;2023-07-31T13:46:15;9.82;;;3.45;;
78004;SDS011;67209;51.698;-0.292;2023-07-31T13:48:41;9.65;;;3.53;;
78004;SDS011;67209;51.698;-0.292;2023-07-31T13:51:07;8.02;;;3.17;;
78004;SDS011;67209;51.698;-0.292;2023-07-31T13:53:33;7.22;;;3.05;;
78004;SDS011;67209;51.698;-0.292;2023-07-31T13:55:59;9.13;;;3.08;;
78004;SDS011;67209;51.698;-0.292;2023-07-31T13:58:25;7.03;;;2.85;;
78004;SDS011;67209;51.698;-0.292;2023-07-31T14:00:51;4.72;;;2.42;;
78004;SDS011;67209;51.698;-0.292;2023-07-31T14:03:17;6.63;;;3.10;;
78004;SDS011;67209;51.698;-0.292;2023-07-31T14:05:43;7.47;;;3.10;;
78004;SDS011;67209;51.698;-0.292;2023-07-31T14:08:09;8.35;;;2.72;;
78004;SDS011;67209;51.698;-0.292;2023-07-31T14:10:35;10.52;;;3.50;;
78004;SDS011;67209;51.698;-0.292;2023-07-31T14:13:01;9.95;;;3.20;;
78004;SDS011;67209;51.698;-0.292;2023-07-31T14:15:27;12.07;;;3.17;;
78004;SDS011;67209;51.698;-0.292;2023-07-31T14:17:53;9.00;;;3.92;;
78004;SDS011;67209;51.698;-0.292;2023-07-31T14:20:19;5.82;;;2.83;;
78004;SDS011;67209;51.698;-0.292;2023-07-31T14:22:45;6.25;;;2.88;;
78004;SDS011;67209;51.698;-0.292;2023-07-31T14:25:11;7.47;;;3.60;;
78004;SDS011;67209;51.698;-0.292;2023-07-31T14:27:38;8.38;;;2.95;;
78004;SDS011;67209;51.698;-0.292;2023-07-31T14:30:04;7.68;;;3.10;;
78004;SDS011;67209;51.698;-0.292;2023-07-31T14:32:30;7.43;;;3.30;;
78004;SDS011;67209;51.698;-0.292;2023-07-31T14:34:56;6.63;;;3.15;;
78004;SDS011;67209;51.698;-0.292;2023-07-31T14:37:25;9.68;;;3.72;;
78004;SDS011;67209;51.698;-0.292;2023-07-31T14:39:52;8.38;;;3.63;;
78004;SDS011;67209;51.698;-0.292;2023-07-31T14:42:18;6.65;;;3.25;;
78004;SDS011;67209;51.698;-0.292;2023-07-31T14:44:44;6.65;;;3.00;;
78004;SDS011;67209;51.698;-0.292;2023-07-31T14:47:12;8.25;;;3.33;;